Time;durP1;ratioP1;P1;durP2;ratioP2;P2;SDS_P1;SDS_P2;PMS_P1;PMS_P2;Temp;Humidity;BMP_temperature;BMP_pressure;BME280_temperature;BME280_humidity;BME280_pressure;Samples;Min_cycle;Max_cycle;Signal;HPM_P1;HPM_P2
2022/04/25 00:00:09;;;;;;;36.75;23.42;;;;;;;-143.53;100.00;58366.03;2084945;28;20227;-70
2022/04/25 00:01:11;;;;;;;32.65;22.92;;;;;;;-143.53;100.00;58366.03;2083827;28;20216;-70
2022/04/25 00:02:12;;;;;;;36.20;23.98;;;;;;;-143.53;100.00;58366.03;2081018;28;20205;-70
2022/04/25 00:03:14;;;;;;;36.00;23.02;;;;;;;-143.53;100.00;58366.03;2085375;28;20610;-70
2022/04/25 00:04:15;;;;;;;36.17;23.20;;;;;;;-143.53;100.00;58366.03;2084803;28;20208;-70
2022/04/25 00:05:17;;;;;;;37.75;24.23;;;;;;;-143.53;100.00;58366.03;2085312;28;20196;-70
2022/04/25 00:06:19;;;;;;;35.78;24.50;;;;;;;-143.53;100.00;58366.03;2085251;28;20235;-70
2022/04/25 00:07:20;;;;;;;36.70;24.27;;;;;;;-143.53;100.00;58366.03;2083538;28;20550;-70
2022/04/25 00:08:22;;;;;;;33.17;23.95;;;;;;;-143.53;100.00;58366.03;2086518;28;20201;-70
2022/04/25 00:09:23;;;;;;;33.97;23.65;;;;;;;-143.53;100.00;58366.03;2085783;28;20193;-70
2022/04/25 00:10:25;;;;;;;34.85;24.20;;;;;;;-143.53;100.00;58366.03;2084855;28;20266;-70
2022/04/25 00:11:26;;;;;;;35.90;25.05;;;;;;;-143.53;100.00;58366.03;2085264;28;20202;-70
2022/04/25 00:12:28;;;;;;;36.60;24.55;;;;;;;-143.53;100.00;58366.03;2085366;28;20192;-70
2022/04/25 00:13:30;;;;;;;36.83;24.98;;;;;;;-143.53;100.00;58366.03;2086997;28;20207;-70
2022/04/25 00:14:31;;;;;;;33.47;23.45;;;;;;;-143.53;100.00;58366.03;2086368;28;20387;-70
2022/04/25 00:15:33;;;;;;;35.72;24.05;;;;;;;-143.53;100.00;58366.03;2085616;28;20204;-70
2022/04/25 00:16:35;;;;;;;36.90;24.75;;;;;;;-143.53;100.00;58366.03;2086830;28;20196;-70
2022/04/25 00:17:37;;;;;;;35.65;26.17;;;;;;;-143.53;100.00;58366.03;2085572;28;20222;-70
2022/04/25 00:18:39;;;;;;;36.28;25.52;;;;;;;-143.53;100.00;58366.03;2083106;28;20200;-70
2022/04/25 00:19:40;;;;;;;36.13;23.70;;;;;;;-143.53;100.00;58366.03;2082580;28;20193;-70
2022/04/25 00:20:42;;;;;;;42.05;23.70;;;;;;;-143.53;100.00;58366.03;2085061;28;20202;-70
2022/04/25 00:21:44;;;;;;;28.92;21.63;;;;;;;-143.53;100.00;58366.03;2087320;28;20204;-70
2022/04/25 00:22:46;;;;;;;30.00;22.13;;;;;;;-143.53;100.00;58366.03;2084492;28;20667;-70
2022/04/25 00:23:48;;;;;;;39.75;23.08;;;;;;;-143.53;100.00;58366.03;2084194;28;20679;-70
2022/04/25 00:24:50;;;;;;;31.05;22.40;;;;;;;-143.53;100.00;58366.03;2083546;28;20205;-70
2022/04/25 00:25:52;;;;;;;28.95;21.80;;;;;;;-143.53;100.00;58366.03;2083484;28;20224;-70
2022/04/25 00:26:53;;;;;;;40.78;24.17;;;;;;;-143.53;100.00;58366.03;2084365;28;20843;-70
2022/04/25 00:27:55;;;;;;;31.13;21.02;;;;;;;-143.53;100.00;58366.03;2085012;28;20772;-70
2022/04/25 00:28:56;;;;;;;29.52;22.13;;;;;;;-143.53;100.00;58366.03;2085469;28;20200;-70
2022/04/25 00:29:58;;;;;;;33.83;21.40;;;;;;;-143.53;100.00;58366.03;2084137;28;20208;-70
2022/04/25 00:30:59;;;;;;;34.90;23.20;;;;;;;-143.53;100.00;58366.03;2085287;28;20223;-70
2022/04/25 00:32:01;;;;;;;33.17;23.42;;;;;;;-143.53;100.00;58366.03;2086218;28;20196;-70
2022/04/25 00:33:03;;;;;;;30.60;21.50;;;;;;;-143.53;100.00;58366.03;2084616;28;20188;-70
2022/04/25 00:34:04;;;;;;;30.70;22.33;;;;;;;-143.53;100.00;58366.03;2084862;28;20204;-70
2022/04/25 00:35:06;;;;;;;31.55;21.70;;;;;;;-143.53;100.00;58366.03;2084585;28;20204;-70
2022/04/25 00:36:08;;;;;;;33.90;22.45;;;;;;;-143.53;100.00;58366.03;2086990;28;20917;-70
2022/04/25 00:37:09;;;;;;;32.72;21.25;;;;;;;-143.53;100.00;58366.03;2083473;28;20201;-70
2022/04/25 00:38:11;;;;;;;28.10;20.95;;;;;;;-143.53;100.00;58366.03;2083510;28;20295;-70
2022/04/25 00:39:12;;;;;;;31.63;22.75;;;;;;;-143.53;100.00;58366.03;2084820;28;20540;-71
2022/04/25 00:40:15;;;;;;;34.40;23.80;;;;;;;-143.53;100.00;58366.03;2086214;28;20705;-70
2022/04/25 00:41:16;;;;;;;36.60;23.73;;;;;;;-143.53;100.00;58366.03;2084250;28;20224;-69
2022/04/25 00:42:18;;;;;;;32.92;22.15;;;;;;;-143.53;100.00;58366.03;2085477;28;20188;-69
2022/04/25 00:43:19;;;;;;;33.38;22.70;;;;;;;-143.53;100.00;58366.03;2085423;28;20747;-68
2022/04/25 00:44:21;;;;;;;28.60;21.40;;;;;;;-143.53;100.00;58366.03;2084294;28;20197;-68
2022/04/25 00:45:22;;;;;;;31.98;22.63;;;;;;;-143.53;100.00;58366.03;2082885;28;20259;-68
2022/04/25 00:46:26;;;;;;;31.63;23.90;;;;;;;-143.53;100.00;58366.03;2080698;28;20678;-68
2022/04/25 00:47:28;;;;;;;35.10;23.52;;;;;;;-143.53;100.00;58366.03;2092413;28;20256;-68
2022/04/25 00:48:29;;;;;;;31.50;22.50;;;;;;;-143.53;100.00;58366.03;2084463;28;20197;-68
2022/04/25 00:49:31;;;;;;;32.50;22.85;;;;;;;-143.53;100.00;58366.03;2083778;28;20206;-69
2022/04/25 00:50:32;;;;;;;33.78;23.80;;;;;;;-143.53;100.00;58366.03;2083229;28;20207;-68
2022/04/25 00:51:34;;;;;;;34.35;24.15;;;;;;;-143.53;100.00;58366.03;2084717;28;20204;-68
2022/04/25 00:52:36;;;;;;;34.45;23.55;;;;;;;-143.53;100.00;58366.03;2086496;28;20198;-68
2022/04/25 00:53:38;;;;;;;36.72;23.80;;;;;;;-143.53;100.00;58366.03;2085356;28;20185;-68
2022/04/25 00:54:41;;;;;;;36.15;23.90;;;;;;;-143.53;100.00;58366.03;2086806;28;20197;-69
2022/04/25 00:55:43;;;;;;;33.80;23.83;;;;;;;-143.53;100.00;58366.03;2084479;28;20680;-68
2022/04/25 00:56:46;;;;;;;35.80;24.38;;;;;;;-143.53;100.00;58366.03;2083939;28;20204;-68
2022/04/25 00:57:50;;;;;;;38.05;23.50;;;;;;;-143.53;100.00;58366.03;2083535;28;20197;-68
2022/04/25 00:58:52;;;;;;;32.55;23.17;;;;;;;-143.53;100.00;58366.03;2085027;28;20204;-68
2022/04/25 00:59:56;;;;;;;34.67;24.10;;;;;;;-143.53;100.00;58366.03;2082537;28;20201;-69
2022/04/25 01:00:57;;;;;;;33.03;24.02;;;;;;;-143.53;100.00;58366.03;2080600;28;20225;-68
2022/04/25 01:01:59;;;;;;;35.88;24.67;;;;;;;-143.53;100.00;58366.03;2083764;28;20204;-68
2022/04/25 01:03:01;;;;;;;35.67;24.55;;;;;;;-143.53;100.00;58366.03;2085213;28;20641;-68
2022/04/25 01:04:04;;;;;;;33.92;24.23;;;;;;;-143.53;100.00;58366.03;2086205;28;20228;-68
2022/04/25 01:05:06;;;;;;;37.90;26.13;;;;;;;-143.53;100.00;58366.03;2082579;28;20680;-68
2022/04/25 01:06:08;;;;;;;37.42;26.50;;;;;;;-143.53;100.00;58366.03;2083231;28;20749;-68
2022/04/25 01:07:10;;;;;;;36.47;26.08;;;;;;;-143.53;100.00;58366.03;2084383;28;20723;-68
2022/04/25 01:08:12;;;;;;;34.83;24.63;;;;;;;-143.53;100.00;58366.03;2082268;28;20790;-68
2022/04/25 01:09:14;;;;;;;39.65;26.42;;;;;;;-143.53;100.00;58366.03;2085118;28;20193;-69
2022/04/25 01:10:15;;;;;;;37.40;25.80;;;;;;;-143.53;100.00;58366.03;2084013;28;20200;-69
2022/04/25 01:11:17;;;;;;;41.85;26.30;;;;;;;-143.53;100.00;58366.03;2084033;28;20233;-68
2022/04/25 01:12:19;;;;;;;37.90;26.15;;;;;;;-143.53;100.00;58366.03;2085087;28;20193;-68
2022/04/25 01:13:20;;;;;;;44.40;27.30;;;;;;;-143.53;100.00;58366.03;2084566;28;20200;-68
2022/04/25 01:14:22;;;;;;;36.38;25.90;;;;;;;-143.53;100.00;58366.03;2085214;28;20641;-68
2022/04/25 01:15:23;;;;;;;35.80;25.10;;;;;;;-143.53;100.00;58366.03;2083937;28;20203;-68
2022/04/25 01:16:25;;;;;;;39.35;26.00;;;;;;;-143.53;100.00;58366.03;2075801;28;20232;-68
2022/04/25 01:17:27;;;;;;;35.50;25.08;;;;;;;-143.53;100.00;58366.03;2084225;28;20278;-68
2022/04/25 01:18:29;;;;;;;38.42;24.50;;;;;;;-143.53;100.00;58366.03;2085476;28;20231;-64
2022/04/25 01:19:31;;;;;;;32.15;23.33;;;;;;;-143.53;100.00;58366.03;2085186;28;20211;-64
2022/04/25 01:20:34;;;;;;;36.13;26.10;;;;;;;-143.53;100.00;58366.03;2085123;28;20235;-64
2022/04/25 01:21:50;;;;;;;37.22;24.88;;;;;;;-143.53;100.00;58366.03;2084656;28;20193;-64
2022/04/25 01:27:15;;;;;;;34.95;23.70;;;;;;;-143.53;100.00;58366.03;2082873;28;20579;-65
2022/04/25 01:27:15;;;;;;;40.30;23.30;;;;;;;-143.53;100.00;58366.03;2083411;28;20820;-64
2022/04/25 01:28:17;;;;;;;36.35;23.67;;;;;;;-143.53;100.00;58366.03;2085164;28;20229;-64
2022/04/25 01:29:18;;;;;;;31.40;20.67;;;;;;;-143.53;100.00;58366.03;2084854;28;20201;-64
2022/04/25 01:30:20;;;;;;;35.08;22.92;;;;;;;-143.53;100.00;58366.03;2085076;28;20200;-64
2022/04/25 01:31:22;;;;;;;36.33;23.70;;;;;;;-143.53;100.00;58366.03;2083899;28;20220;-64
2022/04/25 01:32:24;;;;;;;32.47;23.00;;;;;;;-143.53;100.00;58366.03;2084807;28;20222;-65
2022/04/25 01:33:26;;;;;;;32.70;22.42;;;;;;;-143.53;100.00;58366.03;2083934;28;20207;-64
2022/04/25 01:34:28;;;;;;;36.08;22.30;;;;;;;-143.53;100.00;58366.03;2082688;28;20586;-65
2022/04/25 01:35:30;;;;;;;36.10;23.42;;;;;;;-143.53;100.00;58366.03;2085640;28;20225;-65
2022/04/25 01:36:32;;;;;;;33.97;22.92;;;;;;;-143.53;100.00;58366.03;2085460;28;20196;-64
2022/04/25 01:37:33;;;;;;;35.55;23.30;;;;;;;-143.53;100.00;58366.03;2084223;28;20197;-64
2022/04/25 01:38:35;;;;;;;35.38;23.88;;;;;;;-143.53;100.00;58366.03;2083004;28;20212;-64
2022/04/25 01:39:38;;;;;;;34.53;23.00;;;;;;;-143.53;100.00;58366.03;2085464;28;20197;-64
2022/04/25 01:40:40;;;;;;;34.33;22.88;;;;;;;-143.53;100.00;58366.03;2084094;28;20204;-64
2022/04/25 01:41:42;;;;;;;35.58;23.75;;;;;;;-143.53;100.00;58366.03;2084207;28;20201;-64
2022/04/25 01:42:44;;;;;;;35.95;23.40;;;;;;;-143.53;100.00;58366.03;2083830;28;20204;-64
2022/04/25 01:43:46;;;;;;;35.42;24.15;;;;;;;-143.53;100.00;58366.03;2086688;28;20314;-64
2022/04/25 01:44:48;;;;;;;31.83;21.50;;;;;;;-143.53;100.00;58366.03;2083819;28;20671;-64
2022/04/25 01:45:50;;;;;;;39.42;22.70;;;;;;;-143.53;100.00;58366.03;2083483;28;20227;-65
2022/04/25 01:46:51;;;;;;;32.55;21.90;;;;;;;-143.53;100.00;58366.03;2084482;28;20197;-64
2022/04/25 01:47:53;;;;;;;32.55;22.75;;;;;;;-143.53;100.00;58366.03;2085246;28;20200;-64
2022/04/25 01:48:54;;;;;;;33.65;22.73;;;;;;;-143.53;100.00;58366.03;2085317;28;20189;-64
2022/04/25 01:49:56;;;;;;;34.92;22.30;;;;;;;-143.53;100.00;58366.03;2087264;28;20752;-64
2022/04/25 01:50:58;;;;;;;37.00;23.02;;;;;;;-143.53;100.00;58366.03;2083166;28;20226;-64
2022/04/25 01:52:27;;;;;;;28.95;20.90;;;;;;;-143.53;100.00;58366.03;2082510;28;20204;-65
2022/04/25 01:53:29;;;;;;;28.67;19.80;;;;;;;-143.53;100.00;58366.03;2084996;28;20669;-64
2022/04/25 01:54:32;;;;;;;36.42;21.83;;;;;;;-143.53;100.00;58366.03;2085529;28;20206;-64
2022/04/25 01:55:34;;;;;;;34.42;23.13;;;;;;;-143.53;100.00;58366.03;2084902;28;20228;-64
2022/04/25 01:56:36;;;;;;;31.45;22.60;;;;;;;-143.53;100.00;58366.03;2085967;28;20205;-64
2022/04/25 01:57:38;;;;;;;35.60;23.02;;;;;;;-143.53;100.00;58366.03;2085722;28;20536;-64
2022/04/25 01:58:39;;;;;;;30.10;21.40;;;;;;;-143.53;100.00;58366.03;2086257;28;20202;-64
2022/04/25 01:59:41;;;;;;;34.72;22.00;;;;;;;-143.53;100.00;58366.03;2086189;28;20214;-64
2022/04/25 02:00:43;;;;;;;33.50;23.77;;;;;;;-143.53;100.00;58366.03;2085980;28;20201;-64
2022/04/25 02:01:49;;;;;;;32.03;21.90;;;;;;;-143.53;100.00;58366.03;2081965;28;20196;-64
2022/04/25 02:02:51;;;;;;;29.55;21.10;;;;;;;-143.53;100.00;58366.03;2084066;28;20196;-64
2022/04/25 02:03:52;;;;;;;31.67;21.70;;;;;;;-143.53;100.00;58366.03;2084048;28;20752;-64
2022/04/25 02:04:54;;;;;;;32.30;22.05;;;;;;;-143.53;100.00;58366.03;2084760;28;20671;-65
2022/04/25 02:05:55;;;;;;;32.40;22.42;;;;;;;-143.53;100.00;58366.03;2085865;28;20239;-64
2022/04/25 02:06:58;;;;;;;31.17;21.58;;;;;;;-143.53;100.00;58366.03;2085562;28;20193;-64
2022/04/25 02:07:59;;;;;;;31.33;22.55;;;;;;;-143.53;100.00;58366.03;2084989;28;20542;-64
2022/04/25 02:09:01;;;;;;;31.50;21.63;;;;;;;-143.53;100.00;58366.03;2084045;28;20205;-64
2022/04/25 02:10:03;;;;;;;34.17;22.48;;;;;;;-143.53;100.00;58366.03;2083127;28;20193;-64
2022/04/25 02:11:20;;;;;;;30.85;21.85;;;;;;;-143.53;100.00;58366.03;2076282;28;20236;-64
2022/04/25 02:12:22;;;;;;;32.60;21.50;;;;;;;-143.53;100.00;58366.03;2081835;28;20192;-64
2022/04/25 02:13:23;;;;;;;33.55;22.30;;;;;;;-143.53;100.00;58366.03;2087014;28;20201;-64
2022/04/25 02:14:29;;;;;;;35.15;22.63;;;;;;;-143.53;100.00;58366.03;2082490;28;20201;-64
2022/04/25 02:15:32;;;;;;;32.75;21.13;;;;;;;-143.53;100.00;58366.03;2084454;28;20198;-64
2022/04/25 02:16:33;;;;;;;31.35;20.20;;;;;;;-143.53;100.00;58366.03;2085867;28;20181;-64
2022/04/25 02:17:35;;;;;;;34.05;22.67;;;;;;;-143.53;100.00;58366.03;2083086;28;20585;-64
2022/04/25 02:18:37;;;;;;;34.85;24.67;;;;;;;-143.53;100.00;58366.03;2083452;28;20315;-65
2022/04/25 02:19:38;;;;;;;34.90;22.20;;;;;;;-143.53;100.00;58366.03;2084467;28;20201;-65
2022/04/25 02:20:40;;;;;;;37.17;24.65;;;;;;;-143.53;100.00;58366.03;2083783;28;20192;-64
2022/04/25 02:21:42;;;;;;;36.17;23.10;;;;;;;-143.53;100.00;58366.03;2083562;28;20202;-64
2022/04/25 02:22:44;;;;;;;32.85;22.77;;;;;;;-143.53;100.00;58366.03;2085392;28;20199;-64
2022/04/25 02:23:46;;;;;;;32.58;23.25;;;;;;;-143.53;100.00;58366.03;2083121;28;20247;-64
2022/04/25 02:24:48;;;;;;;34.00;22.77;;;;;;;-143.53;100.00;58366.03;2084872;28;20203;-65
2022/04/25 02:25:49;;;;;;;32.65;22.88;;;;;;;-143.53;100.00;58366.03;2083166;28;20231;-64
2022/04/25 02:26:51;;;;;;;31.95;22.63;;;;;;;-143.53;100.00;58366.03;2082789;28;20211;-64
2022/04/25 02:27:52;;;;;;;32.15;22.88;;;;;;;-143.53;100.00;58366.03;2082153;28;20200;-64
2022/04/25 02:28:54;;;;;;;33.95;23.52;;;;;;;-143.53;100.00;58366.03;2082033;28;20193;-65
2022/04/25 02:29:59;;;;;;;35.70;23.67;;;;;;;-143.53;100.00;58366.03;2084104;28;20197;-65
2022/04/25 02:31:01;;;;;;;33.88;23.02;;;;;;;-143.53;100.00;58366.03;2083608;28;20226;-64
2022/04/25 02:32:03;;;;;;;39.05;23.75;;;;;;;-143.53;100.00;58366.03;2084186;28;20203;-64
2022/04/25 02:33:05;;;;;;;35.95;24.52;;;;;;;-143.53;100.00;58366.03;2080780;28;20208;-65
2022/04/25 02:34:06;;;;;;;36.03;22.98;;;;;;;-143.53;100.00;58366.03;2083023;28;20201;-65
2022/04/25 02:35:08;;;;;;;34.95;22.85;;;;;;;-143.53;100.00;58366.03;2081791;28;20208;-64
2022/04/25 02:36:09;;;;;;;33.53;22.95;;;;;;;-143.53;100.00;58366.03;2082013;28;20222;-64
2022/04/25 02:37:11;;;;;;;31.50;22.63;;;;;;;-143.53;100.00;58366.03;2082776;28;20196;-64
2022/04/25 02:38:13;;;;;;;34.13;23.00;;;;;;;-143.53;100.00;58366.03;2083576;28;20200;-64
2022/04/25 02:39:14;;;;;;;31.42;22.20;;;;;;;-143.53;100.00;58366.03;2083461;28;20204;-64
2022/04/25 02:40:16;;;;;;;30.08;22.10;;;;;;;-143.53;100.00;58366.03;2084326;28;20209;-65
2022/04/25 02:41:17;;;;;;;34.58;22.23;;;;;;;-143.53;100.00;58366.03;2083776;28;20260;-65
2022/04/25 02:42:19;;;;;;;30.92;22.08;;;;;;;-143.53;100.00;58366.03;2085102;28;20203;-65
2022/04/25 02:43:21;;;;;;;32.60;22.70;;;;;;;-143.53;100.00;58366.03;2084268;28;20200;-64
2022/04/25 02:44:22;;;;;;;34.25;22.65;;;;;;;-143.53;100.00;58366.03;2084088;28;20215;-64
2022/04/25 02:45:23;;;;;;;32.22;22.60;;;;;;;-143.53;100.00;58366.03;2083324;28;20192;-64
2022/04/25 02:46:25;;;;;;;31.58;22.42;;;;;;;-143.53;100.00;58366.03;2085207;28;20201;-64
2022/04/25 02:47:26;;;;;;;31.58;21.55;;;;;;;-143.53;100.00;58366.03;2085274;28;20306;-64
2022/04/25 02:48:29;;;;;;;35.30;23.30;;;;;;;-143.53;100.00;58366.03;2084751;28;20200;-64
2022/04/25 02:49:31;;;;;;;29.23;21.02;;;;;;;-143.53;100.00;58366.03;2084593;28;20192;-64
2022/04/25 02:50:33;;;;;;;35.50;23.27;;;;;;;-143.53;100.00;58366.03;2085017;28;20204;-65
2022/04/25 02:51:34;;;;;;;32.45;22.63;;;;;;;-143.53;100.00;58366.03;2085625;28;20662;-64
2022/04/25 02:52:36;;;;;;;32.63;21.50;;;;;;;-143.53;100.00;58366.03;2083075;28;20885;-64
2022/04/25 02:53:38;;;;;;;32.58;22.25;;;;;;;-143.53;100.00;58366.03;2083885;28;20194;-64
2022/04/25 02:54:39;;;;;;;29.90;20.85;;;;;;;-143.53;100.00;58366.03;2085392;28;20195;-64
2022/04/25 02:55:41;;;;;;;33.42;21.25;;;;;;;-143.53;100.00;58366.03;2085005;28;20666;-64
2022/04/25 02:56:42;;;;;;;32.60;20.88;;;;;;;-143.53;100.00;58366.03;2084343;28;20203;-64
2022/04/25 02:57:44;;;;;;;32.92;21.88;;;;;;;-143.53;100.00;58366.03;2084473;28;20209;-64
2022/04/25 02:58:45;;;;;;;35.05;22.90;;;;;;;-143.53;100.00;58366.03;2086142;28;20201;-65
2022/04/25 02:59:47;;;;;;;35.60;22.65;;;;;;;-143.53;100.00;58366.03;2085289;28;20205;-64
2022/04/25 03:00:49;;;;;;;29.40;20.30;;;;;;;-143.53;100.00;58366.03;2082130;28;20258;-64
2022/04/25 03:01:51;;;;;;;42.13;21.48;;;;;;;-143.53;100.00;58366.03;2076365;28;20212;-64
2022/04/25 03:02:52;;;;;;;32.13;21.52;;;;;;;-143.53;100.00;58366.03;2076278;28;20236;-64
2022/04/25 03:03:54;;;;;;;31.35;22.10;;;;;;;-143.53;100.00;58366.03;2083568;28;20188;-64
2022/04/25 03:04:56;;;;;;;34.97;23.45;;;;;;;-143.53;100.00;58366.03;2084285;28;20729;-65
2022/04/25 03:05:57;;;;;;;34.55;23.10;;;;;;;-143.53;100.00;58366.03;2083131;28;20232;-64
2022/04/25 03:06:58;;;;;;;32.03;23.13;;;;;;;-143.53;100.00;58366.03;2084024;28;20598;-64
2022/04/25 03:08:00;;;;;;;38.65;24.50;;;;;;;-143.53;100.00;58366.03;2086068;28;20203;-64
2022/04/25 03:09:03;;;;;;;34.88;23.02;;;;;;;-143.53;100.00;58366.03;2084540;28;20237;-64
2022/04/25 03:10:05;;;;;;;33.42;24.30;;;;;;;-143.53;100.00;58366.03;2082390;28;20668;-65
2022/04/25 03:11:09;;;;;;;31.77;21.48;;;;;;;-143.53;100.00;58366.03;2083645;28;20494;-64
2022/04/25 03:12:10;;;;;;;33.83;23.23;;;;;;;-143.53;100.00;58366.03;2089351;28;20250;-65
2022/04/25 03:13:14;;;;;;;33.35;22.30;;;;;;;-143.53;100.00;58366.03;2090323;28;20199;-64
2022/04/25 03:14:15;;;;;;;30.95;21.50;;;;;;;-143.53;100.00;58366.03;2084324;28;20660;-65
2022/04/25 03:15:17;;;;;;;36.22;23.77;;;;;;;-143.53;100.00;58366.03;2084532;28;20200;-64
2022/04/25 03:16:19;;;;;;;32.00;23.00;;;;;;;-143.53;100.00;58366.03;2081616;28;20228;-64
2022/04/25 03:17:20;;;;;;;33.10;21.80;;;;;;;-143.53;100.00;58366.03;2086167;28;20192;-64
2022/04/25 03:18:22;;;;;;;32.35;22.58;;;;;;;-143.53;100.00;58366.03;2082727;28;20197;-64
2022/04/25 03:19:23;;;;;;;34.33;23.33;;;;;;;-143.53;100.00;58366.03;2082617;28;20197;-64
2022/04/25 03:20:25;;;;;;;37.88;23.45;;;;;;;-143.53;100.00;58366.03;2081570;28;20204;-64
2022/04/25 03:21:27;;;;;;;36.25;23.45;;;;;;;-143.53;100.00;58366.03;2084574;28;20205;-64
2022/04/25 03:22:28;;;;;;;37.28;24.25;;;;;;;-143.53;100.00;58366.03;2082045;28;20236;-64
2022/04/25 03:23:30;;;;;;;38.05;25.17;;;;;;;-143.53;100.00;58366.03;2083386;28;20196;-65
2022/04/25 03:24:32;;;;;;;35.47;23.25;;;;;;;-143.53;100.00;58366.03;2082351;28;20200;-65
2022/04/25 03:25:36;;;;;;;38.53;26.02;;;;;;;-143.53;100.00;58366.03;2082365;28;20207;-64
2022/04/25 03:26:37;;;;;;;34.28;24.42;;;;;;;-143.53;100.00;58366.03;2082811;28;20676;-64
2022/04/25 03:27:38;;;;;;;36.00;24.17;;;;;;;-143.53;100.00;58366.03;2083036;28;20204;-64
2022/04/25 03:28:40;;;;;;;33.17;22.98;;;;;;;-143.53;100.00;58366.03;2084015;28;20204;-64
2022/04/25 03:29:41;;;;;;;41.35;23.27;;;;;;;-143.53;100.00;58366.03;2082877;28;20260;-65
2022/04/25 03:30:43;;;;;;;34.88;23.73;;;;;;;-143.53;100.00;58366.03;2074965;28;20204;-64
2022/04/25 03:31:44;;;;;;;36.45;25.15;;;;;;;-143.53;100.00;58366.03;2080274;28;20201;-64
2022/04/25 03:32:47;;;;;;;36.80;24.88;;;;;;;-143.53;100.00;58366.03;2083067;28;20280;-64
2022/04/25 03:33:49;;;;;;;33.33;23.10;;;;;;;-143.53;100.00;58366.03;2083443;28;20201;-64
2022/04/25 03:34:51;;;;;;;34.20;22.85;;;;;;;-143.53;100.00;58366.03;2084044;28;20197;-64
2022/04/25 03:35:52;;;;;;;33.10;23.48;;;;;;;-143.53;100.00;58366.03;2083347;28;20232;-64
2022/04/25 03:36:56;;;;;;;39.03;24.23;;;;;;;-143.53;100.00;58366.03;2084086;28;20235;-64
2022/04/25 03:37:58;;;;;;;35.47;23.80;;;;;;;-143.53;100.00;58366.03;2083507;28;20208;-64
2022/04/25 03:38:59;;;;;;;37.85;24.90;;;;;;;-143.53;100.00;58366.03;2082960;28;20199;-64
2022/04/25 03:40:01;;;;;;;37.28;22.92;;;;;;;-143.53;100.00;58366.03;2081581;28;20193;-64
2022/04/25 03:41:02;;;;;;;40.92;25.88;;;;;;;-143.53;100.00;58366.03;2082718;28;20891;-65
2022/04/25 03:42:04;;;;;;;40.10;27.17;;;;;;;-143.53;100.00;58366.03;2084556;28;20201;-64
2022/04/25 03:43:09;;;;;;;38.40;25.08;;;;;;;-143.53;100.00;58366.03;2086556;28;20196;-64
2022/04/25 03:44:10;;;;;;;38.42;25.10;;;;;;;-143.53;100.00;58366.03;2084029;28;20197;-65
2022/04/25 03:45:16;;;;;;;40.67;25.17;;;;;;;-143.53;100.00;58366.03;2082065;28;20232;-64
2022/04/25 03:46:18;;;;;;;39.40;26.23;;;;;;;-143.53;100.00;58366.03;2081090;28;20892;-65
2022/04/25 03:47:19;;;;;;;38.88;25.90;;;;;;;-143.53;100.00;58366.03;2085319;28;20561;-65
2022/04/25 03:48:21;;;;;;;39.33;25.08;;;;;;;-143.53;100.00;58366.03;2084919;28;20203;-65
2022/04/25 03:49:22;;;;;;;39.20;24.85;;;;;;;-143.53;100.00;58366.03;2083766;28;20294;-64
2022/04/25 03:50:25;;;;;;;40.97;22.95;;;;;;;-143.53;100.00;58366.03;2083585;28;20703;-65
2022/04/25 03:51:28;;;;;;;38.05;24.48;;;;;;;-143.53;100.00;58366.03;2086599;28;20200;-65
2022/04/25 03:52:30;;;;;;;36.05;24.33;;;;;;;-143.53;100.00;58366.03;2083642;28;20208;-64
2022/04/25 03:53:31;;;;;;;40.60;25.33;;;;;;;-143.53;100.00;58366.03;2082359;28;20196;-64
2022/04/25 03:57:14;;;;;;;33.20;23.92;;;;;;;-143.53;100.00;58366.03;2083283;28;20200;-64
2022/04/25 03:58:16;;;;;;;33.13;23.13;;;;;;;-143.53;100.00;58366.03;2083550;28;20207;-64
2022/04/25 03:59:17;;;;;;;40.75;25.52;;;;;;;-143.53;100.00;58366.03;2084708;28;20201;-64
2022/04/25 04:00:20;;;;;;;39.70;25.70;;;;;;;-143.53;100.00;58366.03;2083824;28;20200;-63
2022/04/25 04:01:21;;;;;;;35.50;24.45;;;;;;;-143.53;100.00;58366.03;2080160;28;20231;-63
2022/04/25 04:02:23;;;;;;;39.38;25.10;;;;;;;-143.53;100.00;58366.03;2080833;28;20197;-63
2022/04/25 04:03:25;;;;;;;39.75;25.27;;;;;;;-143.53;100.00;58366.03;2085417;28;20259;-63
2022/04/25 04:04:27;;;;;;;35.88;23.40;;;;;;;-143.53;100.00;58366.03;2083597;28;20201;-64
2022/04/25 04:05:29;;;;;;;35.58;23.58;;;;;;;-143.53;100.00;58366.03;2082648;28;20243;-63
2022/04/25 04:06:31;;;;;;;36.05;25.23;;;;;;;-143.53;100.00;58366.03;2082024;28;20205;-63
2022/04/25 04:07:33;;;;;;;32.90;22.30;;;;;;;-143.53;100.00;58366.03;2082009;28;20196;-64
2022/04/25 04:08:35;;;;;;;39.20;24.35;;;;;;;-143.53;100.00;58366.03;2085530;28;20197;-64
2022/04/25 04:09:45;;;;;;;32.70;23.48;;;;;;;-143.53;100.00;58366.03;2084778;28;20228;-64
2022/04/25 04:10:47;;;;;;;34.40;23.58;;;;;;;-143.53;100.00;58366.03;2082419;28;20608;-64
2022/04/25 04:11:48;;;;;;;39.40;23.98;;;;;;;-143.53;100.00;58366.03;2083066;28;20197;-63
2022/04/25 04:12:50;;;;;;;34.33;23.27;;;;;;;-143.53;100.00;58366.03;2082945;28;20718;-64
2022/04/25 04:13:51;;;;;;;33.85;23.25;;;;;;;-143.53;100.00;58366.03;2083912;28;20200;-63
2022/04/25 04:14:53;;;;;;;34.00;22.40;;;;;;;-143.53;100.00;58366.03;2081269;28;20607;-63
2022/04/25 04:15:56;;;;;;;34.30;23.13;;;;;;;-143.53;100.00;58366.03;2083076;28;20235;-63
2022/04/25 04:16:58;;;;;;;34.85;22.20;;;;;;;-143.53;100.00;58366.03;2082746;28;20208;-64
2022/04/25 04:18:00;;;;;;;33.33;22.58;;;;;;;-143.53;100.00;58366.03;2083881;28;20200;-64
2022/04/25 04:19:01;;;;;;;37.63;24.20;;;;;;;-143.53;100.00;58366.03;2083219;28;20201;-64
2022/04/25 04:20:03;;;;;;;37.70;23.52;;;;;;;-143.53;100.00;58366.03;2084327;28;20200;-63
2022/04/25 04:21:05;;;;;;;35.08;22.30;;;;;;;-143.53;100.00;58366.03;2083628;28;20220;-64
2022/04/25 04:22:07;;;;;;;39.42;23.58;;;;;;;-143.53;100.00;58366.03;2073422;28;20232;-63
2022/04/25 04:23:09;;;;;;;33.50;23.25;;;;;;;-143.53;100.00;58366.03;2082924;28;20204;-64
2022/04/25 04:24:10;;;;;;;36.00;22.35;;;;;;;-143.53;100.00;58366.03;2084232;28;20204;-64
2022/04/25 04:25:13;;;;;;;33.55;23.00;;;;;;;-143.53;100.00;58366.03;2084348;28;20199;-63
2022/04/25 04:26:14;;;;;;;31.98;22.08;;;;;;;-143.53;100.00;58366.03;2083313;28;20305;-63
2022/04/25 04:27:16;;;;;;;37.00;24.08;;;;;;;-143.53;100.00;58366.03;2086005;28;20205;-64
2022/04/25 04:28:18;;;;;;;39.88;23.95;;;;;;;-143.53;100.00;58366.03;2085237;28;20209;-64
2022/04/25 04:29:19;;;;;;;35.42;23.58;;;;;;;-143.53;100.00;58366.03;2086421;28;20235;-64
2022/04/25 04:30:21;;;;;;;38.25;23.70;;;;;;;-143.53;100.00;58366.03;2085213;28;20197;-63
2022/04/25 04:31:22;;;;;;;33.60;23.33;;;;;;;-143.53;100.00;58366.03;2084359;28;20224;-64
2022/04/25 04:32:29;;;;;;;42.92;22.35;;;;;;;-143.53;100.00;58366.03;2084838;28;20388;-63
2022/04/25 04:33:31;;;;;;;35.05;23.00;;;;;;;-143.53;100.00;58366.03;2084219;28;20199;-64
2022/04/25 04:34:37;;;;;;;32.60;22.40;;;;;;;-143.53;100.00;58366.03;2086249;28;20192;-63
2022/04/25 04:36:59;;;;;;;32.72;22.73;;;;;;;-143.53;100.00;58366.03;2085504;28;20227;-63
2022/04/25 04:38:00;;;;;;;34.78;22.30;;;;;;;-143.53;100.00;58366.03;2085163;28;20204;-63
2022/04/25 04:39:02;;;;;;;33.47;23.70;;;;;;;-143.53;100.00;58366.03;2084879;28;20208;-64
2022/04/25 04:41:26;;;;;;;38.75;23.38;;;;;;;-143.53;100.00;58366.03;2079272;28;20435;-61
2022/04/25 04:42:28;;;;;;;38.35;23.40;;;;;;;-143.53;100.00;58366.03;2083995;28;20204;-62
2022/04/25 04:43:29;;;;;;;33.45;23.48;;;;;;;-143.53;100.00;58366.03;2086530;28;20265;-62
2022/04/25 04:44:30;;;;;;;34.90;22.92;;;;;;;-143.53;100.00;58366.03;2085683;28;20667;-61